Weather at Chambéry-Savoie Airport

Public forecast

Using degrees Celsius for public forecast. Weather courtesy of forecast.io.

Current aviation weather report (METAR) for Chambéry-Savoie Airport

Retrieved 2020/10/24 05:30 UTC (9 minutes ago):

LFLB 240530Z AUTO 15002KT 9999 BKN056 OVC086 11/10 Q1021 TEMPO 3500 -RA BR BKN011

Aviation forecast (TAF) for Chambéry-Savoie Airport

Retrieved 2020-10-24 03:24 UTC (2 hours ago):

TAF LFLB 240200Z 2403/2503 18006KT 9999 BKN045 PROB30 TEMPO 2403/2407 3500 -RA BR BKN011 BECMG 2408/2411 36005KT FEW040 BECMG 2417/2420 18008KT